Weather at Teos Marina Helipad

Public forecast

Using degrees Celsius for public forecast. Weather courtesy of forecast.io.

Closest aviation weather report (METAR) to Teos Marina Helipad

Report is more than 6 hours old.

Closest report is Adnan Menderes International Airport, 18.6 nm (34.4 km) ENE.

2022/11/14 15:20 (retrieved 2 years ago)

LTBJ 141520Z 01010KT CAVOK 16/08 Q1018 NOSIG RMK RWY16 36011KT

Closest aviation forecast (TAF) to Teos Marina Helipad

Forecast is more than 12 hours old.

Closest forecast is Adnan Menderes International Airport, 18.6 nm (34.4 km) ENE.

2023/02/22 18:03 (retrieved 1 year ago)

TAF LTBJ 221640Z 2218/2318 VRB02KT 7000 NSC BECMG 2222/2302 3200 BR SCT010 PROB40 2302/2306 0300 FG VV001 BECMG 2307/2310 CAVOK BECMG 2310/2312 FEW030 BECMG 2313/2315 CAVOK TEMPO 2313/2317 35012KT